Time;durP1;ratioP1;P1;durP2;ratioP2;P2;SDS_P1;SDS_P2;PMS_P1;PMS_P2;Temp;Humidity;BMP_temperature;BMP_pressure;BME280_temperature;BME280_humidity;BME280_pressure;Samples;Min_cycle;Max_cycle;Signal;HPM_P1;HPM_P2
2023/07/12 00:00:59;;;;;;;5.53;3.28;;;18.80;99.90;;;18.73;100.00;96955.53;5026795;28;20033;-36
2023/07/12 00:03:25;;;;;;;5.25;3.10;;;18.80;99.90;;;18.76;100.00;96952.63;5030527;28;20029;-36
2023/07/12 00:05:51;;;;;;;6.22;3.30;;;18.80;99.90;;;18.74;100.00;96959.91;5029426;28;20036;-36
2023/07/12 00:08:25;;;;;;;3.38;2.75;;;18.80;99.90;;;18.73;100.00;96960.03;5030020;28;20555;-36
2023/07/12 00:10:54;;;;;;;5.55;3.00;;;18.80;99.90;;;18.76;100.00;96957.13;5032036;28;20033;-36
2023/07/12 00:13:20;;;;;;;5.95;3.45;;;18.80;99.90;;;18.80;100.00;96951.41;5034120;28;20486;-36
2023/07/12 00:15:48;;;;;;;4.47;3.10;;;18.80;99.90;;;18.81;100.00;96947.81;5032197;28;20067;-36
2023/07/12 00:18:24;;;;;;;3.97;2.90;;;18.80;99.90;;;18.82;100.00;96935.31;5029743;28;20111;-36
2023/07/12 00:20:52;;;;;;;7.55;2.55;;;18.80;99.90;;;18.79;100.00;96931.03;5031779;28;20036;-36
2023/07/12 00:23:19;;;;;;;3.65;2.70;;;18.80;99.90;;;18.78;100.00;96937.31;5028165;28;20119;-36
2023/07/12 00:25:47;;;;;;;4.53;2.70;;;18.80;99.90;;;18.82;100.00;96935.31;5029208;28;20423;-36
2023/07/12 00:28:27;;;;;;;4.90;2.80;;;18.90;99.90;;;18.82;100.00;96921.94;5029716;28;20095;-36
2023/07/12 00:30:56;;;;;;;2.95;2.40;;;18.90;99.90;;;18.89;100.00;96915.16;5030030;28;20410;-36
2023/07/12 00:33:23;;;;;;;4.75;2.42;;;18.90;99.90;;;18.87;100.00;96901.91;5030300;28;20443;-36
2023/07/12 00:35:50;;;;;;;3.67;2.55;;;18.90;99.90;;;18.80;100.00;96900.66;5032291;28;20071;-36
2023/07/12 00:38:26;;;;;;;3.40;2.47;;;18.90;99.90;;;18.84;100.00;96888.81;5028639;28;20049;-36
2023/07/12 00:41:10;;;;;;;3.58;2.30;;;18.90;99.90;;;18.86;100.00;96894.00;5029432;28;20039;-36
2023/07/12 00:43:50;;;;;;;2.55;2.10;;;18.90;99.90;;;18.85;100.00;96903.84;5047725;28;20041;-37
2023/07/12 00:46:27;;;;;;;3.22;2.08;;;18.90;99.90;;;18.93;100.00;96907.75;5029996;28;20444;-36
2023/07/12 00:48:53;;;;;;;3.58;2.38;;;18.90;99.90;;;18.83;100.00;96905.81;5028061;28;21127;-35
2023/07/12 00:51:27;;;;;;;2.85;2.30;;;18.90;99.90;;;18.83;100.00;96904.97;5028361;28;20032;-35
2023/07/12 00:53:55;;;;;;;3.05;2.20;;;18.90;99.90;;;18.83;100.00;96899.63;5029825;28;20444;-35
2023/07/12 00:56:21;;;;;;;2.83;2.25;;;18.90;99.90;;;18.83;100.00;96916.47;5032097;28;20028;-35
2023/07/12 00:58:57;;;;;;;2.72;2.10;;;18.90;99.90;;;18.86;100.00;96916.25;5029200;28;20044;-35
2023/07/12 01:01:26;;;;;;;2.97;2.20;;;18.90;99.90;;;18.83;100.00;96903.13;5028318;28;20441;-35
2023/07/12 01:03:53;;;;;;;3.05;2.10;;;18.90;99.90;;;18.81;100.00;96897.06;5028815;28;20390;-34
2023/07/12 01:06:20;;;;;;;2.83;2.13;;;18.90;99.90;;;18.79;100.00;96893.63;5028028;28;20029;-35
2023/07/12 01:08:45;;;;;;;4.72;2.20;;;18.90;99.90;;;18.77;100.00;96884.91;5030309;28;20412;-35
2023/07/12 01:11:14;;;;;;;11.02;2.28;;;18.90;99.90;;;18.80;100.00;96889.13;5031480;28;20028;-35
2023/07/12 01:13:43;;;;;;;6.00;2.20;;;18.90;99.90;;;18.80;100.00;96894.47;5028417;28;20033;-35
2023/07/12 01:16:13;;;;;;;4.38;2.00;;;18.90;99.90;;;18.80;100.00;96875.78;5025348;28;20044;-35
2023/07/12 01:18:38;;;;;;;4.65;2.15;;;18.90;99.90;;;18.80;100.00;96854.41;5029235;28;20822;-36
2023/07/12 01:21:27;;;;;;;2.97;2.00;;;18.90;99.90;;;18.82;100.00;96837.31;5028900;28;20168;-36
2023/07/12 01:23:52;;;;;;;3.97;2.17;;;18.90;99.90;;;18.78;100.00;96825.13;5032475;28;20115;-36
2023/07/12 01:26:26;;;;;;;4.32;2.30;;;18.90;99.90;;;18.78;100.00;96819.78;5029214;28;20033;-36
2023/07/12 01:28:57;;;;;;;2.65;2.10;;;18.80;99.90;;;18.79;100.00;96824.19;5033814;28;20452;-35
2023/07/12 01:31:26;;;;;;;2.50;2.10;;;18.90;99.90;;;18.79;100.00;96834.88;5027937;28;20252;-36
2023/07/12 01:33:52;;;;;;;5.38;2.22;;;18.90;99.90;;;18.79;100.00;96856.22;5034519;28;20436;-36
2023/07/12 01:36:19;;;;;;;4.55;2.25;;;18.90;99.90;;;18.82;100.00;96865.84;5029185;28;20029;-36
2023/07/12 01:38:50;;;;;;;3.75;2.20;;;18.90;99.90;;;18.80;100.00;96852.56;5030320;28;20029;-36
2023/07/12 01:41:17;;;;;;;3.33;1.65;;;18.90;99.90;;;18.84;100.00;96838.06;5028750;28;20093;-36
2023/07/12 01:43:43;;;;;;;2.30;1.65;;;18.90;99.90;;;18.88;100.00;96801.25;5032595;28;20037;-36
2023/07/12 01:46:08;;;;;;;3.45;2.10;;;19.00;99.90;;;18.85;100.00;96730.22;5028119;28;20033;-36
2023/07/12 01:48:34;;;;;;;3.22;2.17;;;19.00;99.90;;;18.88;100.00;96697.91;5031103;28;20033;-36
2023/07/12 01:51:01;;;;;;;5.57;2.67;;;19.00;99.90;;;18.87;100.00;96698.88;5026080;28;20504;-36
2023/07/12 01:53:28;;;;;;;7.13;2.30;;;18.90;99.90;;;18.84;100.00;96699.16;5029728;28;20032;-36
2023/07/12 01:55:54;;;;;;;6.28;2.40;;;18.90;99.90;;;18.76;100.00;96725.59;5032624;28;20025;-36
2023/07/12 01:58:21;;;;;;;3.55;2.33;;;18.90;99.90;;;18.73;100.00;96727.66;5031106;28;20166;-36
2023/07/12 02:00:49;;;;;;;7.32;2.20;;;18.80;99.90;;;18.57;100.00;96714.69;5027516;28;20029;-37
2023/07/12 02:03:15;;;;;;;3.22;2.08;;;18.70;99.90;;;18.57;100.00;96731.53;5032594;28;20025;-36
2023/07/12 02:05:42;;;;;;;4.10;2.30;;;18.70;99.90;;;18.59;100.00;96742.09;5031591;28;20044;-36
2023/07/12 02:08:09;;;;;;;3.92;2.00;;;18.70;99.90;;;18.53;100.00;96743.44;5030052;28;20671;-36
2023/07/12 02:10:35;;;;;;;3.40;1.70;;;18.60;99.90;;;18.55;100.00;96748.69;5032928;28;20034;-36
2023/07/12 02:13:01;;;;;;;3.42;2.10;;;18.70;99.90;;;18.54;100.00;96777.19;5033112;28;20040;-35
2023/07/12 02:15:27;;;;;;;2.70;2.15;;;18.60;99.90;;;18.51;100.00;96769.44;5033830;28;20033;-37
2023/07/12 02:17:53;;;;;;;3.35;2.00;;;18.60;99.90;;;18.47;100.00;96774.16;5033595;28;20115;-36
2023/07/12 02:20:19;;;;;;;3.30;2.10;;;18.50;99.90;;;18.46;100.00;96777.78;5032162;28;20587;-36
2023/07/12 02:22:48;;;;;;;3.17;2.10;;;18.60;99.90;;;18.42;100.00;96764.81;5020372;28;20324;-36
2023/07/12 02:25:15;;;;;;;4.85;2.38;;;18.50;99.90;;;18.41;100.00;96760.44;5027114;28;20182;-36
2023/07/12 02:27:42;;;;;;;4.05;2.10;;;18.50;99.90;;;18.37;100.00;96764.31;5029212;28;20029;-35
2023/07/12 02:30:12;;;;;;;6.32;2.13;;;18.50;99.90;;;18.37;100.00;96764.31;5030274;28;20405;-36
2023/07/12 02:32:38;;;;;;;4.90;2.47;;;18.40;99.90;;;18.37;100.00;96769.66;5030238;28;20998;-36
2023/07/12 02:35:05;;;;;;;2.38;2.13;;;18.40;99.90;;;18.34;100.00;96765.44;5030426;28;20048;-37
2023/07/12 02:37:31;;;;;;;6.53;2.72;;;18.40;99.90;;;18.33;100.00;96763.72;5031512;28;20067;-38
2023/07/12 02:39:56;;;;;;;3.08;2.20;;;18.40;99.90;;;18.33;100.00;96769.06;5032279;28;20025;-36
2023/07/12 02:42:22;;;;;;;4.50;2.35;;;18.40;99.90;;;18.31;100.00;96765.66;5030949;28;20369;-36
2023/07/12 02:44:49;;;;;;;3.53;2.42;;;18.40;99.90;;;18.23;100.00;96747.59;5031533;28;20029;-36
2023/07/12 02:47:15;;;;;;;4.43;2.63;;;18.30;99.90;;;18.23;100.00;96755.59;5032935;28;20025;-36
2023/07/12 02:49:40;;;;;;;3.92;2.42;;;18.30;99.90;;;18.29;100.00;96759.59;5033449;28;20040;-36
2023/07/12 02:52:08;;;;;;;4.47;2.85;;;18.30;99.90;;;18.30;100.00;96763.94;5031684;28;20080;-36
2023/07/12 02:54:34;;;;;;;3.78;2.50;;;18.30;99.90;;;18.28;100.00;96756.06;5036957;28;20039;-36
2023/07/12 02:57:01;;;;;;;5.50;3.17;;;18.40;99.90;;;18.27;100.00;96761.53;5030681;28;20029;-35
2023/07/12 02:59:27;;;;;;;7.88;2.75;;;18.40;99.90;;;18.25;100.00;96739.44;5032353;28;20033;-36
2023/07/12 03:01:54;;;;;;;4.60;2.60;;;18.30;99.90;;;18.18;100.00;96739.09;5033425;28;20094;-36
2023/07/12 03:04:21;;;;;;;4.78;2.88;;;18.30;99.90;;;18.23;100.00;96749.38;5030529;28;20028;-36
2023/07/12 03:06:48;;;;;;;3.13;2.63;;;18.30;99.90;;;18.22;100.00;96759.22;5033544;28;20321;-36
2023/07/12 03:09:14;;;;;;;7.80;3.17;;;18.30;99.90;;;18.22;100.00;96767.22;5029981;28;20288;-36
2023/07/12 03:11:39;;;;;;;5.28;2.85;;;18.30;99.90;;;18.18;100.00;96768.44;5033644;28;20045;-36
2023/07/12 03:14:06;;;;;;;5.35;2.75;;;18.30;99.90;;;18.23;100.00;96768.06;5029396;28;20029;-36
2023/07/12 03:16:32;;;;;;;7.05;2.80;;;18.30;99.90;;;18.25;100.00;96780.34;5031938;28;20033;-36
2023/07/12 03:19:00;;;;;;;8.43;3.15;;;18.30;99.90;;;18.24;100.00;96780.47;5027520;28;20025;-36
2023/07/12 03:21:26;;;;;;;3.90;2.90;;;18.30;99.90;;;18.23;100.00;96784.94;5027024;28;20108;-36
2023/07/12 03:23:52;;;;;;;9.50;2.95;;;18.30;99.90;;;18.27;100.00;96782.91;5030311;28;20032;-36
2023/07/12 03:26:18;;;;;;;5.53;2.85;;;18.30;99.90;;;18.17;100.00;96763.22;5028451;28;21534;-36
2023/07/12 03:28:44;;;;;;;6.22;3.35;;;18.30;99.90;;;18.21;100.00;96778.00;5031559;28;20037;-36
2023/07/12 03:31:13;;;;;;;5.60;3.10;;;18.30;99.90;;;18.21;100.00;96772.69;5029538;28;20032;-36
2023/07/12 03:33:39;;;;;;;6.63;3.38;;;18.30;99.90;;;18.20;100.00;96774.50;5030373;28;20037;-36
2023/07/12 03:36:05;;;;;;;6.50;2.95;;;18.30;99.90;;;18.21;100.00;96780.69;5027719;28;20059;-35
2023/07/12 03:38:32;;;;;;;4.65;3.08;;;18.30;99.90;;;18.24;100.00;96785.78;5024963;28;20064;-35
2023/07/12 03:41:04;;;;;;;4.90;3.40;;;18.30;99.90;;;18.28;100.00;96790.75;5027805;28;20033;-35
2023/07/12 03:43:30;;;;;;;3.10;2.72;;;18.30;99.90;;;18.27;100.00;96786.41;5027137;28;20043;-35
2023/07/12 03:45:56;;;;;;;4.63;3.00;;;18.40;99.90;;;18.04;100.00;96753.50;5026795;28;20038;-35
2023/07/12 03:48:23;;;;;;;4.47;2.80;;;18.40;99.90;;;18.27;100.00;96797.09;5025409;28;20037;-35
2023/07/12 03:50:51;;;;;;;5.30;3.25;;;18.40;99.90;;;18.20;100.00;96792.34;5029771;28;20112;-35
2023/07/12 03:53:18;;;;;;;9.80;3.47;;;18.40;99.90;;;18.33;100.00;96826.94;5029600;28;20112;-35
2023/07/12 03:55:46;;;;;;;5.18;3.22;;;18.40;99.90;;;18.35;100.00;96831.19;5027778;28;20040;-36
2023/07/12 03:58:19;;;;;;;5.88;3.60;;;18.50;99.90;;;18.40;100.00;96826.34;5031715;28;20029;-35
2023/07/12 04:00:48;;;;;;;6.93;3.50;;;18.50;99.90;;;18.44;100.00;96800.25;5032814;28;20025;-35
2023/07/12 04:03:15;;;;;;;5.40;3.22;;;18.50;99.90;;;18.47;100.00;96798.19;5031540;28;20112;-35
2023/07/12 04:05:42;;;;;;;4.43;3.17;;;18.60;99.90;;;18.49;100.00;96800.75;5024533;28;20033;-35
2023/07/12 04:08:11;;;;;;;4.20;2.92;;;18.60;99.90;;;18.49;100.00;96806.91;5032230;28;20040;-36
2023/07/12 04:10:37;;;;;;;4.97;3.13;;;18.60;99.90;;;18.51;100.00;96799.63;5033765;28;20204;-35
2023/07/12 04:13:04;;;;;;;6.25;3.30;;;18.60;99.90;;;18.51;100.00;96823.66;5029336;28;20029;-36
2023/07/12 04:15:30;;;;;;;5.60;3.70;;;18.60;99.90;;;18.53;100.00;96825.38;5027570;28;20037;-36
2023/07/12 04:17:55;;;;;;;6.93;3.25;;;18.60;99.90;;;18.57;100.00;96835.69;5034022;28;20260;-36
2023/07/12 04:20:21;;;;;;;6.57;3.30;;;18.70;99.90;;;18.64;100.00;96841.41;5029842;28;23947;-36
2023/07/12 04:22:51;;;;;;;5.50;3.03;;;18.70;99.90;;;18.70;100.00;96856.97;5026259;28;20041;-35
2023/07/12 04:25:18;;;;;;;7.45;2.90;;;18.80;99.90;;;18.78;100.00;96859.88;5029571;28;20090;-36
2023/07/12 04:27:44;;;;;;;7.72;3.42;;;18.90;99.90;;;18.81;100.00;96840.09;5029923;28;20032;-36
2023/07/12 04:30:16;;;;;;;10.15;3.17;;;18.90;99.90;;;18.94;100.00;96854.19;5026805;28;20559;-36
2023/07/12 04:32:43;;;;;;;10.65;3.97;;;19.00;99.90;;;18.99;100.00;96851.16;5023902;28;20440;-36
2023/07/12 04:35:10;;;;;;;9.00;3.40;;;19.10;99.90;;;19.06;100.00;96844.34;5025997;28;20485;-36
2023/07/12 04:37:36;;;;;;;8.13;3.50;;;19.20;99.90;;;19.19;100.00;96841.53;5024620;28;20033;-36
2023/07/12 04:40:02;;;;;;;4.65;3.33;;;19.30;99.90;;;19.32;100.00;96849.41;5027899;28;20037;-36
2023/07/12 04:42:28;;;;;;;6.30;3.20;;;19.40;99.90;;;19.44;100.00;96846.59;5026556;28;20077;-36
2023/07/12 04:44:53;;;;;;;3.95;2.85;;;19.50;99.90;;;19.61;100.00;96863.06;5026036;28;20029;-36
2023/07/12 04:47:19;;;;;;;8.15;4.18;;;19.70;99.90;;;19.63;100.00;96832.56;5004606;28;20024;-37
2023/07/12 04:49:45;;;;;;;13.70;3.53;;;19.80;99.90;;;19.79;100.00;96847.34;5027423;28;20569;-36
2023/07/12 04:52:12;;;;;;;7.88;3.72;;;19.90;99.90;;;19.89;100.00;96847.47;5031076;28;20064;-37
2023/07/12 04:54:41;;;;;;;11.65;3.45;;;20.00;99.90;;;19.90;100.00;96844.66;5028383;28;20043;-36
2023/07/12 04:57:07;;;;;;;10.50;3.58;;;20.00;99.90;;;19.98;100.00;96852.03;5031839;28;20024;-36
2023/07/12 04:59:34;;;;;;;7.35;3.42;;;20.10;99.90;;;19.86;100.00;96831.66;5030394;28;20323;-36
2023/07/12 05:02:00;;;;;;;7.65;3.50;;;20.10;99.90;;;19.95;100.00;96847.78;5022062;28;20021;-36
2023/07/12 05:04:25;;;;;;;7.15;3.50;;;20.10;99.90;;;19.93;100.00;96851.56;5026749;28;20033;-36
2023/07/12 05:06:52;;;;;;;8.20;3.00;;;20.10;99.90;;;19.84;100.00;96839.81;5026115;28;20575;-37
2023/07/12 05:09:18;;;;;;;7.00;3.28;;;20.10;99.90;;;19.94;100.00;96855.97;5025658;28;20086;-37
2023/07/12 05:11:44;;;;;;;8.32;3.55;;;20.10;99.90;;;19.99;100.00;96859.94;5031299;28;20032;-36
2023/07/12 05:14:10;;;;;;;5.20;3.15;;;20.10;99.90;;;20.03;100.00;96865.88;5028645;28;20112;-36
2023/07/12 05:16:36;;;;;;;5.47;3.40;;;20.10;99.90;;;20.10;100.00;96868.88;5029187;28;20494;-36
2023/07/12 05:19:03;;;;;;;5.07;3.40;;;20.20;99.90;;;20.17;100.00;96870.94;5028101;28;20472;-36
2023/07/12 05:21:29;;;;;;;7.63;3.67;;;20.30;99.90;;;20.20;100.00;96869.81;5026468;28;20033;-37
2023/07/12 05:23:55;;;;;;;8.65;3.42;;;20.30;99.90;;;20.27;100.00;96876.34;5023840;28;20040;-36
2023/07/12 05:26:21;;;;;;;6.07;3.90;;;20.40;99.90;;;20.24;100.00;96868.56;5026593;28;20025;-37
2023/07/12 05:28:46;;;;;;;11.25;3.88;;;20.40;99.90;;;20.28;100.00;96872.69;5028653;28;20468;-38
2023/07/12 05:31:13;;;;;;;10.23;4.30;;;20.50;99.90;;;20.39;100.00;96890.53;5028301;28;20045;-37
2023/07/12 05:33:44;;;;;;;8.38;3.72;;;20.50;99.90;;;20.43;100.00;96886.59;5027847;28;20063;-37
2023/07/12 05:36:11;;;;;;;5.83;3.60;;;20.60;99.90;;;20.52;100.00;96893.00;5034299;28;20082;-37
2023/07/12 05:38:37;;;;;;;8.90;3.70;;;20.60;99.90;;;20.54;100.00;96883.00;5028227;28;20047;-37
2023/07/12 05:41:03;;;;;;;8.18;3.70;;;20.70;99.90;;;20.56;100.00;96897.97;5028591;28;20033;-37
2023/07/12 05:43:29;;;;;;;10.30;3.90;;;20.70;99.90;;;20.60;100.00;96893.19;5029882;28;20571;-38
2023/07/12 05:45:57;;;;;;;6.85;3.67;;;20.70;99.90;;;20.69;100.00;96891.59;5030588;28;20031;-38
2023/07/12 05:48:24;;;;;;;8.20;4.18;;;20.80;99.90;;;20.67;100.00;96872.13;5029306;28;20750;-38
2023/07/12 05:50:56;;;;;;;9.07;3.90;;;20.90;99.90;;;20.81;100.00;96881.66;5031719;28;20041;-37
2023/07/12 05:53:21;;;;;;;12.18;3.80;;;20.90;99.90;;;20.89;100.00;96889.84;5028661;28;20033;-36
2023/07/12 05:55:53;;;;;;;7.00;3.70;;;21.00;99.90;;;20.95;100.00;96887.50;5029743;28;20450;-36
2023/07/12 05:58:19;;;;;;;8.93;4.60;;;21.10;99.90;;;21.00;100.00;96878.19;5031559;28;20028;-36
2023/07/12 06:00:45;;;;;;;10.43;4.35;;;21.10;99.90;;;20.99;100.00;96872.00;5027896;28;20041;-36
2023/07/12 06:03:11;;;;;;;7.93;3.97;;;21.20;99.90;;;21.12;100.00;96879.81;5029643;28;20393;-36
2023/07/12 06:05:41;;;;;;;8.15;4.10;;;21.20;99.90;;;21.23;100.00;96879.72;5026648;28;20033;-36
2023/07/12 06:08:07;;;;;;;7.45;3.75;;;21.30;99.90;;;21.38;100.00;96877.50;5029703;28;20035;-36
2023/07/12 06:10:33;;;;;;;7.97;4.22;;;21.40;99.90;;;21.52;100.00;96882.50;5036151;28;20032;-36
2023/07/12 06:12:59;;;;;;;8.73;4.53;;;21.60;99.90;;;21.58;100.00;96885.63;5035075;28;20084;-36
2023/07/12 06:15:24;;;;;;;8.20;4.47;;;21.70;99.90;;;21.61;100.00;96891.56;5038347;28;20028;-36
2023/07/12 06:17:50;;;;;;;9.52;3.80;;;21.70;99.90;;;21.64;100.00;96887.75;5040241;28;20044;-36
2023/07/12 06:20:16;;;;;;;8.88;4.40;;;21.80;99.90;;;21.71;100.00;96899.63;5029558;28;20884;-36
2023/07/12 06:22:42;;;;;;;8.05;4.18;;;21.80;99.90;;;21.76;100.00;96901.91;5032840;28;20448;-36
2023/07/12 06:25:09;;;;;;;12.82;4.40;;;21.80;99.90;;;21.76;100.00;96900.06;5031790;28;20038;-36
2023/07/12 06:27:34;;;;;;;6.32;3.88;;;21.90;99.90;;;21.85;100.00;96898.38;5034236;28;20060;-36
2023/07/12 06:30:00;;;;;;;7.22;4.00;;;21.90;99.90;;;21.89;100.00;96897.97;5034242;28;20037;-36
2023/07/12 06:32:26;;;;;;;10.18;4.10;;;22.00;99.90;;;21.93;100.00;96903.91;5032026;28;20052;-36
2023/07/12 06:34:51;;;;;;;10.93;4.65;;;22.00;99.90;;;21.97;100.00;96909.88;5034111;28;20032;-36
2023/07/12 06:37:17;;;;;;;7.30;4.38;;;22.10;99.90;;;22.08;100.00;96907.03;5035456;28;20631;-36
2023/07/12 06:39:43;;;;;;;8.60;3.90;;;22.20;99.90;;;22.29;100.00;96896.19;5032570;28;22872;-36
2023/07/12 06:42:08;;;;;;;11.27;4.32;;;22.50;99.90;;;22.62;100.00;96894.84;5031096;28;20044;-36
2023/07/12 06:44:35;;;;;;;6.30;4.15;;;22.70;99.90;;;22.91;100.00;96907.38;5028707;28;20029;-36
2023/07/12 06:47:01;;;;;;;9.80;4.38;;;22.90;99.90;;;22.93;100.00;96894.63;5033443;28;20320;-36
2023/07/12 06:49:27;;;;;;;10.73;4.53;;;23.10;99.90;;;23.11;100.00;96910.88;5029003;28;20045;-36
2023/07/12 06:51:53;;;;;;;9.35;3.88;;;23.20;99.90;;;23.25;100.00;96909.56;5025424;28;20440;-36
2023/07/12 06:54:18;;;;;;;6.05;3.72;;;23.30;99.90;;;23.17;100.00;96904.94;5029152;28;20029;-36
2023/07/12 06:56:46;;;;;;;9.70;3.78;;;23.40;99.90;;;23.29;100.00;96921.72;5026426;28;21579;-36
2023/07/12 06:59:12;;;;;;;9.00;4.25;;;23.40;99.90;;;23.41;100.00;96933.16;5030537;28;20124;-36
2023/07/12 07:01:37;;;;;;;6.88;3.83;;;23.50;99.90;;;23.54;100.00;96927.41;5032306;28;21189;-37
2023/07/12 07:04:05;;;;;;;6.72;4.03;;;23.60;99.90;;;23.48;100.00;96928.03;5029617;28;20028;-38
2023/07/12 07:06:30;;;;;;;9.63;3.90;;;23.60;99.90;;;23.52;100.00;96932.13;5033132;28;20037;-37
2023/07/12 07:08:56;;;;;;;8.75;3.75;;;23.60;99.90;;;23.48;100.00;96946.88;5034951;28;20501;-37
2023/07/12 07:11:22;;;;;;;6.55;4.10;;;23.50;99.90;;;23.44;100.00;96944.47;5035299;28;20115;-37
2023/07/12 07:13:50;;;;;;;9.32;4.13;;;23.50;99.90;;;23.34;100.00;96942.81;5036683;28;20041;-37
2023/07/12 07:16:17;;;;;;;8.80;3.72;;;23.40;99.90;;;23.24;100.00;96946.38;5037278;28;20029;-37
2023/07/12 07:18:43;;;;;;;5.13;3.58;;;23.30;99.90;;;23.29;100.00;96939.72;5035074;28;20411;-37
2023/07/12 07:21:11;;;;;;;7.38;3.60;;;23.30;99.90;;;23.36;100.00;96947.03;5036349;28;20079;-37
2023/07/12 07:23:36;;;;;;;10.02;3.70;;;23.40;99.90;;;23.51;100.00;96949.25;5034070;28;20036;-37
2023/07/12 07:26:04;;;;;;;10.15;3.30;;;23.40;99.90;;;23.56;100.00;96952.34;5036745;28;20025;-37
2023/07/12 07:28:30;;;;;;;7.25;3.17;;;23.50;99.90;;;23.59;100.00;96942.13;5034536;28;20051;-37
2023/07/12 07:30:57;;;;;;;7.18;3.30;;;23.60;99.90;;;23.72;100.00;96959.78;5037001;28;20036;-37
2023/07/12 07:33:24;;;;;;;8.80;3.67;;;23.70;99.90;;;23.80;100.00;96960.75;5037341;28;20037;-36
2023/07/12 07:35:50;;;;;;;5.45;3.58;;;23.80;99.90;;;23.81;100.00;96967.84;5036436;28;20061;-36
2023/07/12 07:38:16;;;;;;;8.15;3.35;;;23.80;99.90;;;23.79;100.00;96968.94;5035205;28;20120;-36
2023/07/12 07:40:42;;;;;;;9.30;4.00;;;23.80;99.90;;;23.75;100.00;96965.69;5034548;28;20029;-37
2023/07/12 07:43:09;;;;;;;6.82;3.20;;;23.70;99.90;;;23.79;100.00;96975.16;5036099;28;20033;-36
2023/07/12 07:45:35;;;;;;;4.82;3.25;;;23.80;99.90;;;23.86;100.00;96977.31;5034155;28;20473;-36
2023/07/12 07:48:01;;;;;;;8.60;3.78;;;23.80;99.90;;;23.93;100.00;96975.72;5032937;28;20044;-36
2023/07/12 07:50:27;;;;;;;4.88;3.65;;;23.90;99.90;;;24.06;100.00;96978.88;5034773;28;20034;-36
2023/07/12 07:52:53;;;;;;;5.60;3.20;;;24.00;99.90;;;24.16;100.00;96971.59;5025085;28;20041;-37
2023/07/12 07:55:20;;;;;;;8.02;3.25;;;24.10;99.90;;;24.34;100.00;96981.53;5034382;28;20075;-37
2023/07/12 07:57:46;;;;;;;7.00;3.25;;;24.30;99.90;;;24.45;100.00;96980.47;5029706;28;20517;-36
2023/07/12 08:00:13;;;;;;;4.43;2.88;;;24.40;99.90;;;24.56;99.74;96982.94;5030685;28;20037;-36
2023/07/12 08:02:42;;;;;;;6.55;3.15;;;24.50;99.90;;;24.64;94.51;96990.25;5037787;28;21057;-37
2023/07/12 08:05:09;;;;;;;5.45;3.03;;;24.60;99.90;;;24.72;93.23;96991.19;5032257;28;20238;-37
2023/07/12 08:07:46;;;;;;;6.00;3.47;;;24.60;99.90;;;24.77;96.53;96988.03;5033983;28;20486;-37
2023/07/12 08:10:17;;;;;;;6.10;3.40;;;24.70;99.90;;;24.81;92.73;96980.47;5035039;28;20163;-37
2023/07/12 08:12:43;;;;;;;6.97;3.25;;;24.70;99.90;;;24.77;94.72;96978.06;5032918;28;20127;-37
2023/07/12 08:15:10;;;;;;;6.32;3.35;;;24.80;99.90;;;24.87;90.47;96986.09;5033939;28;20439;-37
2023/07/12 08:17:37;;;;;;;6.70;3.33;;;24.80;99.90;;;24.87;91.21;96985.22;5028969;28;20021;-37
2023/07/12 08:20:04;;;;;;;7.75;3.10;;;24.80;99.90;;;24.92;88.17;96988.31;5034622;28;20036;-37
2023/07/12 08:22:33;;;;;;;4.35;3.05;;;24.90;99.90;;;24.99;84.46;96983.13;5034392;28;20498;-37
2023/07/12 08:24:59;;;;;;;4.35;2.90;;;24.90;99.90;;;25.10;89.42;96990.97;5029658;28;20033;-37
2023/07/12 08:27:25;;;;;;;5.63;3.10;;;25.00;99.90;;;25.04;85.61;97000.53;5034304;28;20384;-37
2023/07/12 08:29:51;;;;;;;6.82;3.13;;;25.00;99.90;;;24.92;79.78;96999.94;5033071;28;20028;-37
2023/07/12 08:32:18;;;;;;;7.97;3.38;;;25.00;99.90;;;24.75;88.89;97009.75;5037599;28;20033;-37
2023/07/12 08:34:44;;;;;;;6.88;3.08;;;24.80;99.90;;;24.78;86.28;97008.56;5032335;28;20029;-36
2023/07/12 08:37:10;;;;;;;4.75;3.05;;;24.70;99.90;;;24.92;85.16;96999.94;5036333;28;20555;-37
2023/07/12 08:39:36;;;;;;;3.92;2.75;;;24.90;99.90;;;25.13;100.00;97004.16;5029826;28;20037;-37
2023/07/12 08:42:11;;;;;;;4.10;2.88;;;25.00;99.90;;;25.18;82.20;97003.66;5035931;28;20473;-37
2023/07/12 08:44:37;;;;;;;4.40;2.80;;;25.10;99.90;;;25.38;82.36;97007.06;5032764;28;20516;-37
2023/07/12 08:47:02;;;;;;;6.32;3.38;;;25.30;99.90;;;25.41;79.81;97014.81;5034641;28;20367;-37
2023/07/12 08:49:29;;;;;;;4.70;2.92;;;25.40;99.90;;;25.53;75.48;97019.78;5029243;28;20032;-37
2023/07/12 08:52:02;;;;;;;5.22;2.75;;;25.50;99.90;;;25.49;74.12;97018.41;5034360;28;20094;-37
2023/07/12 08:54:36;;;;;;;5.47;2.80;;;25.50;99.90;;;25.54;72.76;97015.25;5034453;28;20055;-37
2023/07/12 08:57:07;;;;;;;4.60;2.80;;;25.40;99.90;;;25.69;75.33;97005.53;5032320;28;20134;-37
2023/07/12 08:59:32;;;;;;;4.07;2.78;;;25.60;99.90;;;25.75;73.81;97011.28;5035817;28;20045;-37
2023/07/12 09:02:00;;;;;;;5.72;3.25;;;25.70;99.90;;;25.82;71.72;97012.34;5030813;28;20131;-37
2023/07/12 09:04:31;;;;;;;5.85;2.80;;;25.70;99.90;;;25.91;72.31;97016.75;5033237;28;20448;-37
2023/07/12 09:07:01;;;;;;;5.88;3.05;;;25.90;99.90;;;25.98;68.75;97017.00;5030672;28;20025;-37
2023/07/12 09:09:32;;;;;;;4.85;2.72;;;25.90;99.90;;;26.16;69.85;97014.19;5035178;28;20028;-37
2023/07/12 09:12:00;;;;;;;5.40;2.78;;;26.10;99.90;;;26.42;70.81;97020.34;5033108;28;20060;-37
2023/07/12 09:14:26;;;;;;;4.78;2.75;;;26.30;99.90;;;26.46;66.89;97015.44;5031615;28;20076;-37
2023/07/12 09:16:59;;;;;;;6.15;3.00;;;26.30;99.90;;;26.50;68.87;97016.81;5034911;28;20477;-37
2023/07/12 09:19:31;;;;;;;4.80;2.70;;;26.50;99.90;;;26.62;67.94;97018.22;5040742;28;20059;-37
2023/07/12 09:22:12;;;;;;;4.72;2.97;;;26.60;99.90;;;26.83;63.73;97020.44;5038075;28;20029;-37
2023/07/12 09:24:50;;;;;;;5.22;2.90;;;26.80;99.90;;;26.94;60.46;97015.72;5036819;28;20048;-37
2023/07/12 09:27:22;;;;;;;4.38;2.65;;;26.90;99.90;;;27.01;61.81;96998.63;5037444;28;20140;-37
2023/07/12 09:29:58;;;;;;;4.50;3.03;;;27.00;99.90;;;27.22;63.06;97011.63;5036254;28;20116;-37
2023/07/12 09:32:31;;;;;;;4.00;2.80;;;27.20;99.90;;;27.29;59.18;97002.84;5036985;28;20444;-37
2023/07/12 09:34:57;;;;;;;4.30;2.80;;;27.30;99.90;;;27.38;67.03;97001.81;5035612;28;20580;-37
2023/07/12 09:37:24;;;;;;;4.28;2.80;;;27.40;99.90;;;27.69;60.18;97003.75;5036151;28;20045;-37
2023/07/12 09:40:01;;;;;;;6.10;3.03;;;27.70;99.90;;;27.67;58.35;97003.09;5034695;28;20033;-37
2023/07/12 09:42:30;;;;;;;8.65;3.20;;;27.80;99.90;;;27.79;60.52;96997.13;5030640;28;20040;-37
2023/07/12 09:44:57;;;;;;;6.82;3.15;;;27.90;99.90;;;27.82;55.43;96998.66;5030516;28;20061;-37
2023/07/12 09:47:45;;;;;;;5.25;2.63;;;27.80;99.70;;;27.75;53.58;96994.94;5036673;28;20025;-37
2023/07/12 09:50:22;;;;;;;4.93;2.60;;;27.70;98.70;;;27.58;54.34;96976.06;5036309;28;20591;-37
2023/07/12 09:53:16;;;;;;;6.93;3.00;;;27.60;98.40;;;27.59;57.12;96985.84;5031535;28;20025;-37
2023/07/12 09:56:08;;;;;;;3.72;2.67;;;27.50;99.30;;;27.42;57.13;96992.31;5033011;28;20587;-37
2023/07/12 09:58:55;;;;;;;4.28;2.90;;;27.50;98.90;;;27.35;58.83;96994.03;5038830;28;20079;-37
2023/07/12 10:01:43;;;;;;;6.32;2.80;;;27.40;99.90;;;26.98;57.70;96993.53;5036218;28;20037;-37
2023/07/12 10:04:55;;;;;;;3.67;2.33;;;27.10;99.10;;;26.66;60.72;96999.78;5035695;28;20507;-37
2023/07/12 10:07:38;;;;;;;4.87;2.90;;;26.90;99.90;;;26.68;59.47;97003.16;4999744;28;20042;-37
2023/07/12 10:10:11;;;;;;;;;;;26.80;99.50;;;26.72;61.73;96996.44;5029092;28;20048;-37
2023/07/12 10:12:46;;;;;;;3.17;2.30;;;26.80;99.90;;;26.87;63.37;96995.75;5038266;28;19921;-37
2023/07/12 10:15:14;;;;;;;3.92;2.47;;;26.90;99.90;;;27.04;59.77;96992.00;5036438;28;20036;-37
2023/07/12 10:17:42;;;;;;;4.30;2.60;;;27.10;99.70;;;27.29;61.48;96981.19;5036503;28;20029;-37